sensor_id;sensor_type;location;lat;lon;timestamp;P1;durP1;ratioP1;P2;durP2;ratioP2
76155;SDS011;64906;51.290;7.348;2023-04-06T00:00:08;22.87;;;16.50;;
76155;SDS011;64906;51.290;7.348;2023-04-06T00:02:34;24.80;;;15.55;;
76155;SDS011;64906;51.290;7.348;2023-04-06T00:04:59;22.55;;;15.55;;
76155;SDS011;64906;51.290;7.348;2023-04-06T00:07:25;21.33;;;15.35;;
76155;SDS011;64906;51.290;7.348;2023-04-06T00:09:51;21.45;;;13.77;;
76155;SDS011;64906;51.290;7.348;2023-04-06T00:12:16;22.20;;;14.75;;
76155;SDS011;64906;51.290;7.348;2023-04-06T00:14:41;22.77;;;15.40;;
76155;SDS011;64906;51.290;7.348;2023-04-06T00:17:07;20.77;;;14.50;;
76155;SDS011;64906;51.290;7.348;2023-04-06T00:19:32;20.63;;;14.65;;
76155;SDS011;64906;51.290;7.348;2023-04-06T00:21:57;20.17;;;14.60;;
76155;SDS011;64906;51.290;7.348;2023-04-06T00:24:23;23.00;;;15.33;;
76155;SDS011;64906;51.290;7.348;2023-04-06T00:26:48;20.37;;;13.87;;
76155;SDS011;64906;51.290;7.348;2023-04-06T00:29:13;19.63;;;14.13;;
76155;SDS011;64906;51.290;7.348;2023-04-06T00:31:39;20.73;;;13.90;;
76155;SDS011;64906;51.290;7.348;2023-04-06T00:34:05;20.85;;;13.98;;
76155;SDS011;64906;51.290;7.348;2023-04-06T00:36:31;21.48;;;14.40;;
76155;SDS011;64906;51.290;7.348;2023-04-06T00:38:56;21.33;;;14.57;;
76155;SDS011;64906;51.290;7.348;2023-04-06T00:41:21;20.15;;;13.93;;
76155;SDS011;64906;51.290;7.348;2023-04-06T00:43:47;20.57;;;13.10;;
76155;SDS011;64906;51.290;7.348;2023-04-06T00:46:12;19.67;;;13.85;;
76155;SDS011;64906;51.290;7.348;2023-04-06T00:48:38;21.13;;;14.27;;
76155;SDS011;64906;51.290;7.348;2023-04-06T00:51:04;19.02;;;13.50;;
76155;SDS011;64906;51.290;7.348;2023-04-06T00:53:29;18.70;;;12.55;;
76155;SDS011;64906;51.290;7.348;2023-04-06T00:55:54;20.27;;;13.53;;
76155;SDS011;64906;51.290;7.348;2023-04-06T00:58:20;18.53;;;13.07;;
76155;SDS011;64906;51.290;7.348;2023-04-06T01:00:45;19.00;;;12.83;;
76155;SDS011;64906;51.290;7.348;2023-04-06T01:03:10;18.23;;;11.60;;
76155;SDS011;64906;51.290;7.348;2023-04-06T01:05:36;18.00;;;11.80;;
76155;SDS011;64906;51.290;7.348;2023-04-06T01:08:05;17.75;;;11.77;;
76155;SDS011;64906;51.290;7.348;2023-04-06T01:10:31;17.02;;;11.77;;
76155;SDS011;64906;51.290;7.348;2023-04-06T01:12:56;17.80;;;12.17;;
76155;SDS011;64906;51.290;7.348;2023-04-06T01:15:21;17.55;;;12.30;;
76155;SDS011;64906;51.290;7.348;2023-04-06T01:17:47;17.95;;;11.90;;
76155;SDS011;64906;51.290;7.348;2023-04-06T01:20:12;19.03;;;12.47;;
76155;SDS011;64906;51.290;7.348;2023-04-06T01:22:38;16.73;;;11.73;;
76155;SDS011;64906;51.290;7.348;2023-04-06T01:25:03;18.50;;;12.23;;
76155;SDS011;64906;51.290;7.348;2023-04-06T01:27:29;17.25;;;12.32;;
76155;SDS011;64906;51.290;7.348;2023-04-06T01:29:55;16.42;;;11.90;;
76155;SDS011;64906;51.290;7.348;2023-04-06T01:32:20;15.00;;;10.77;;
76155;SDS011;64906;51.290;7.348;2023-04-06T01:34:46;15.40;;;10.43;;
76155;SDS011;64906;51.290;7.348;2023-04-06T01:37:11;17.15;;;11.23;;
76155;SDS011;64906;51.290;7.348;2023-04-06T01:39:36;17.70;;;11.37;;
76155;SDS011;64906;51.290;7.348;2023-04-06T01:42:02;17.93;;;11.33;;
76155;SDS011;64906;51.290;7.348;2023-04-06T01:44:27;16.75;;;10.02;;
76155;SDS011;64906;51.290;7.348;2023-04-06T01:46:55;16.85;;;11.48;;
76155;SDS011;64906;51.290;7.348;2023-04-06T01:49:20;15.23;;;10.55;;
76155;SDS011;64906;51.290;7.348;2023-04-06T01:51:45;16.90;;;10.03;;
76155;SDS011;64906;51.290;7.348;2023-04-06T01:54:11;15.67;;;11.00;;
76155;SDS011;64906;51.290;7.348;2023-04-06T01:56:36;15.77;;;10.83;;
76155;SDS011;64906;51.290;7.348;2023-04-06T01:59:01;15.73;;;10.77;;
76155;SDS011;64906;51.290;7.348;2023-04-06T02:01:27;14.48;;;10.48;;
76155;SDS011;64906;51.290;7.348;2023-04-06T02:03:52;15.47;;;10.50;;
76155;SDS011;64906;51.290;7.348;2023-04-06T02:06:17;15.03;;;9.93;;
76155;SDS011;64906;51.290;7.348;2023-04-06T02:08:42;13.90;;;9.73;;
76155;SDS011;64906;51.290;7.348;2023-04-06T02:11:08;15.15;;;10.30;;
76155;SDS011;64906;51.290;7.348;2023-04-06T02:13:33;15.13;;;10.17;;
76155;SDS011;64906;51.290;7.348;2023-04-06T02:15:59;14.40;;;10.00;;
76155;SDS011;64906;51.290;7.348;2023-04-06T02:18:24;15.30;;;10.23;;
76155;SDS011;64906;51.290;7.348;2023-04-06T02:20:49;14.73;;;9.55;;
76155;SDS011;64906;51.290;7.348;2023-04-06T02:23:15;13.27;;;9.10;;
76155;SDS011;64906;51.290;7.348;2023-04-06T02:25:40;14.15;;;9.98;;
76155;SDS011;64906;51.290;7.348;2023-04-06T02:28:06;14.77;;;9.75;;
76155;SDS011;64906;51.290;7.348;2023-04-06T02:30:31;14.60;;;9.90;;
76155;SDS011;64906;51.290;7.348;2023-04-06T02:32:57;13.63;;;9.48;;
76155;SDS011;64906;51.290;7.348;2023-04-06T02:35:24;15.63;;;10.07;;
76155;SDS011;64906;51.290;7.348;2023-04-06T02:37:50;15.18;;;10.02;;
76155;SDS011;64906;51.290;7.348;2023-04-06T02:40:15;12.90;;;9.03;;
76155;SDS011;64906;51.290;7.348;2023-04-06T02:42:40;14.77;;;9.43;;
76155;SDS011;64906;51.290;7.348;2023-04-06T02:45:06;14.13;;;9.33;;
76155;SDS011;64906;51.290;7.348;2023-04-06T02:47:32;13.40;;;8.60;;
76155;SDS011;64906;51.290;7.348;2023-04-06T02:49:58;15.00;;;9.30;;
76155;SDS011;64906;51.290;7.348;2023-04-06T02:52:23;14.10;;;9.37;;
76155;SDS011;64906;51.290;7.348;2023-04-06T02:54:48;11.93;;;8.30;;
76155;SDS011;64906;51.290;7.348;2023-04-06T02:57:15;13.75;;;8.40;;
76155;SDS011;64906;51.290;7.348;2023-04-06T02:59:41;13.03;;;8.33;;
76155;SDS011;64906;51.290;7.348;2023-04-06T03:02:06;12.77;;;8.80;;
76155;SDS011;64906;51.290;7.348;2023-04-06T03:04:31;12.43;;;8.20;;
76155;SDS011;64906;51.290;7.348;2023-04-06T03:06:56;13.13;;;8.53;;
76155;SDS011;64906;51.290;7.348;2023-04-06T03:09:22;11.43;;;7.23;;
76155;SDS011;64906;51.290;7.348;2023-04-06T03:11:47;12.93;;;8.70;;
76155;SDS011;64906;51.290;7.348;2023-04-06T03:14:12;12.02;;;8.50;;
76155;SDS011;64906;51.290;7.348;2023-04-06T03:16:38;13.27;;;8.70;;
76155;SDS011;64906;51.290;7.348;2023-04-06T03:19:03;12.20;;;7.40;;
76155;SDS011;64906;51.290;7.348;2023-04-06T03:21:28;13.63;;;8.47;;
76155;SDS011;64906;51.290;7.348;2023-04-06T03:23:53;12.27;;;8.03;;
76155;SDS011;64906;51.290;7.348;2023-04-06T03:26:19;11.02;;;7.43;;
76155;SDS011;64906;51.290;7.348;2023-04-06T03:28:44;12.25;;;8.15;;
76155;SDS011;64906;51.290;7.348;2023-04-06T03:31:09;12.40;;;6.97;;
76155;SDS011;64906;51.290;7.348;2023-04-06T03:33:35;10.90;;;7.18;;
76155;SDS011;64906;51.290;7.348;2023-04-06T03:36:00;11.10;;;8.07;;
76155;SDS011;64906;51.290;7.348;2023-04-06T03:38:25;11.30;;;7.50;;
76155;SDS011;64906;51.290;7.348;2023-04-06T03:40:51;13.17;;;7.83;;
76155;SDS011;64906;51.290;7.348;2023-04-06T03:43:16;12.43;;;7.57;;
76155;SDS011;64906;51.290;7.348;2023-04-06T03:45:41;12.10;;;7.70;;
76155;SDS011;64906;51.290;7.348;2023-04-06T03:48:06;11.70;;;7.70;;
76155;SDS011;64906;51.290;7.348;2023-04-06T03:50:32;10.60;;;6.77;;
76155;SDS011;64906;51.290;7.348;2023-04-06T03:52:57;11.27;;;7.67;;
76155;SDS011;64906;51.290;7.348;2023-04-06T03:55:22;10.03;;;7.00;;
76155;SDS011;64906;51.290;7.348;2023-04-06T03:57:47;11.13;;;6.87;;
76155;SDS011;64906;51.290;7.348;2023-04-06T04:00:13;11.03;;;6.80;;
76155;SDS011;64906;51.290;7.348;2023-04-06T04:02:39;10.95;;;7.28;;
76155;SDS011;64906;51.290;7.348;2023-04-06T04:05:04;10.80;;;7.05;;
76155;SDS011;64906;51.290;7.348;2023-04-06T04:07:30;11.13;;;6.78;;
76155;SDS011;64906;51.290;7.348;2023-04-06T04:09:55;10.70;;;6.57;;
76155;SDS011;64906;51.290;7.348;2023-04-06T04:12:20;10.98;;;7.22;;
76155;SDS011;64906;51.290;7.348;2023-04-06T04:14:46;11.03;;;7.07;;
76155;SDS011;64906;51.290;7.348;2023-04-06T04:17:11;10.07;;;6.65;;
76155;SDS011;64906;51.290;7.348;2023-04-06T04:19:37;11.10;;;6.93;;
76155;SDS011;64906;51.290;7.348;2023-04-06T04:22:02;10.90;;;6.73;;
76155;SDS011;64906;51.290;7.348;2023-04-06T04:24:29;10.93;;;6.68;;
76155;SDS011;64906;51.290;7.348;2023-04-06T04:26:55;10.27;;;6.65;;
76155;SDS011;64906;51.290;7.348;2023-04-06T04:29:21;8.90;;;6.05;;
76155;SDS011;64906;51.290;7.348;2023-04-06T04:31:47;9.65;;;6.50;;
76155;SDS011;64906;51.290;7.348;2023-04-06T04:34:13;9.98;;;6.78;;
76155;SDS011;64906;51.290;7.348;2023-04-06T04:36:39;9.60;;;6.40;;
76155;SDS011;64906;51.290;7.348;2023-04-06T04:39:06;9.27;;;6.13;;
76155;SDS011;64906;51.290;7.348;2023-04-06T04:41:32;10.73;;;6.28;;
76155;SDS011;64906;51.290;7.348;2023-04-06T04:43:57;14.07;;;6.30;;
76155;SDS011;64906;51.290;7.348;2023-04-06T04:46:23;10.18;;;6.53;;
76155;SDS011;64906;51.290;7.348;2023-04-06T04:48:48;8.47;;;5.60;;
76155;SDS011;64906;51.290;7.348;2023-04-06T04:51:13;9.20;;;5.93;;
76155;SDS011;64906;51.290;7.348;2023-04-06T04:53:38;9.33;;;6.07;;
76155;SDS011;64906;51.290;7.348;2023-04-06T04:56:04;9.53;;;6.30;;
76155;SDS011;64906;51.290;7.348;2023-04-06T04:58:29;9.30;;;6.17;;
76155;SDS011;64906;51.290;7.348;2023-04-06T05:00:55;8.80;;;5.88;;
76155;SDS011;64906;51.290;7.348;2023-04-06T05:03:23;8.63;;;5.53;;
76155;SDS011;64906;51.290;7.348;2023-04-06T05:05:50;10.15;;;5.90;;
76155;SDS011;64906;51.290;7.348;2023-04-06T05:08:16;8.77;;;5.93;;
76155;SDS011;64906;51.290;7.348;2023-04-06T05:10:41;9.48;;;5.53;;
76155;SDS011;64906;51.290;7.348;2023-04-06T05:13:07;8.40;;;5.22;;
76155;SDS011;64906;51.290;7.348;2023-04-06T05:15:32;8.25;;;5.65;;
76155;SDS011;64906;51.290;7.348;2023-04-06T05:18:00;9.50;;;5.35;;
76155;SDS011;64906;51.290;7.348;2023-04-06T05:20:26;7.78;;;5.05;;
76155;SDS011;64906;51.290;7.348;2023-04-06T05:22:51;8.18;;;5.38;;
76155;SDS011;64906;51.290;7.348;2023-04-06T05:25:16;9.33;;;5.33;;
76155;SDS011;64906;51.290;7.348;2023-04-06T05:27:42;8.87;;;5.70;;
76155;SDS011;64906;51.290;7.348;2023-04-06T05:30:07;7.93;;;5.73;;
76155;SDS011;64906;51.290;7.348;2023-04-06T05:32:33;8.38;;;5.38;;
76155;SDS011;64906;51.290;7.348;2023-04-06T05:34:59;8.65;;;5.28;;
76155;SDS011;64906;51.290;7.348;2023-04-06T05:37:24;8.18;;;5.25;;
76155;SDS011;64906;51.290;7.348;2023-04-06T05:39:50;8.55;;;5.35;;
76155;SDS011;64906;51.290;7.348;2023-04-06T05:42:15;8.38;;;4.95;;
76155;SDS011;64906;51.290;7.348;2023-04-06T05:44:41;9.52;;;6.05;;
76155;SDS011;64906;51.290;7.348;2023-04-06T05:47:06;11.17;;;4.97;;
76155;SDS011;64906;51.290;7.348;2023-04-06T05:49:32;8.20;;;5.30;;
76155;SDS011;64906;51.290;7.348;2023-04-06T05:51:57;7.72;;;4.65;;
76155;SDS011;64906;51.290;7.348;2023-04-06T05:54:22;7.83;;;4.90;;
76155;SDS011;64906;51.290;7.348;2023-04-06T05:56:48;8.33;;;5.03;;
76155;SDS011;64906;51.290;7.348;2023-04-06T05:59:13;8.57;;;5.33;;
76155;SDS011;64906;51.290;7.348;2023-04-06T06:01:38;7.37;;;4.77;;
76155;SDS011;64906;51.290;7.348;2023-04-06T06:04:03;7.73;;;4.33;;
76155;SDS011;64906;51.290;7.348;2023-04-06T06:06:29;7.20;;;4.32;;
76155;SDS011;64906;51.290;7.348;2023-04-06T06:08:57;7.00;;;4.70;;
76155;SDS011;64906;51.290;7.348;2023-04-06T06:11:26;8.27;;;5.22;;
76155;SDS011;64906;51.290;7.348;2023-04-06T06:13:52;6.93;;;4.45;;
76155;SDS011;64906;51.290;7.348;2023-04-06T06:16:18;7.68;;;4.93;;
76155;SDS011;64906;51.290;7.348;2023-04-06T06:18:44;7.30;;;4.70;;
76155;SDS011;64906;51.290;7.348;2023-04-06T06:21:09;7.55;;;4.95;;
76155;SDS011;64906;51.290;7.348;2023-04-06T06:23:36;7.18;;;4.22;;
76155;SDS011;64906;51.290;7.348;2023-04-06T06:26:02;7.15;;;4.75;;
76155;SDS011;64906;51.290;7.348;2023-04-06T06:28:28;7.20;;;4.47;;
76155;SDS011;64906;51.290;7.348;2023-04-06T06:30:53;7.63;;;5.03;;
76155;SDS011;64906;51.290;7.348;2023-04-06T06:33:18;7.15;;;4.25;;
76155;SDS011;64906;51.290;7.348;2023-04-06T06:35:44;6.82;;;4.05;;
76155;SDS011;64906;51.290;7.348;2023-04-06T06:38:09;7.50;;;4.73;;
76155;SDS011;64906;51.290;7.348;2023-04-06T06:40:34;7.82;;;4.72;;
76155;SDS011;64906;51.290;7.348;2023-04-06T06:43:00;8.87;;;5.00;;
76155;SDS011;64906;51.290;7.348;2023-04-06T06:45:25;6.68;;;4.38;;
76155;SDS011;64906;51.290;7.348;2023-04-06T06:47:51;7.30;;;4.53;;
76155;SDS011;64906;51.290;7.348;2023-04-06T06:50:16;7.20;;;4.23;;
76155;SDS011;64906;51.290;7.348;2023-04-06T06:52:41;7.60;;;4.43;;
76155;SDS011;64906;51.290;7.348;2023-04-06T06:55:07;7.07;;;4.43;;
76155;SDS011;64906;51.290;7.348;2023-04-06T06:57:33;6.50;;;4.13;;
76155;SDS011;64906;51.290;7.348;2023-04-06T06:59:59;6.07;;;3.87;;
76155;SDS011;64906;51.290;7.348;2023-04-06T07:02:25;6.80;;;4.22;;
76155;SDS011;64906;51.290;7.348;2023-04-06T07:04:50;6.50;;;3.78;;
76155;SDS011;64906;51.290;7.348;2023-04-06T07:07:15;6.73;;;3.97;;
76155;SDS011;64906;51.290;7.348;2023-04-06T07:09:41;6.60;;;3.97;;
76155;SDS011;64906;51.290;7.348;2023-04-06T07:12:06;7.53;;;4.32;;
76155;SDS011;64906;51.290;7.348;2023-04-06T07:14:32;6.22;;;3.85;;
76155;SDS011;64906;51.290;7.348;2023-04-06T07:16:57;7.10;;;4.23;;
76155;SDS011;64906;51.290;7.348;2023-04-06T07:19:22;6.80;;;4.10;;
76155;SDS011;64906;51.290;7.348;2023-04-06T07:21:48;6.68;;;4.20;;
76155;SDS011;64906;51.290;7.348;2023-04-06T07:24:14;6.10;;;4.10;;
76155;SDS011;64906;51.290;7.348;2023-04-06T07:26:40;6.45;;;3.97;;
76155;SDS011;64906;51.290;7.348;2023-04-06T07:29:06;5.97;;;3.70;;
76155;SDS011;64906;51.290;7.348;2023-04-06T07:31:32;6.10;;;3.75;;
76155;SDS011;64906;51.290;7.348;2023-04-06T07:33:57;7.63;;;4.07;;
76155;SDS011;64906;51.290;7.348;2023-04-06T07:36:22;6.95;;;3.95;;
76155;SDS011;64906;51.290;7.348;2023-04-06T07:38:48;5.83;;;3.60;;
76155;SDS011;64906;51.290;7.348;2023-04-06T07:41:14;7.28;;;3.92;;
76155;SDS011;64906;51.290;7.348;2023-04-06T07:43:39;5.50;;;3.25;;
76155;SDS011;64906;51.290;7.348;2023-04-06T07:46:05;6.75;;;3.83;;
76155;SDS011;64906;51.290;7.348;2023-04-06T07:48:31;6.20;;;3.63;;
76155;SDS011;64906;51.290;7.348;2023-04-06T07:51:03;5.93;;;3.42;;
76155;SDS011;64906;51.290;7.348;2023-04-06T07:53:30;5.90;;;3.72;;
76155;SDS011;64906;51.290;7.348;2023-04-06T07:55:55;5.43;;;3.30;;
76155;SDS011;64906;51.290;7.348;2023-04-06T07:58:21;5.95;;;3.45;;
76155;SDS011;64906;51.290;7.348;2023-04-06T08:00:47;6.55;;;3.70;;
76155;SDS011;64906;51.290;7.348;2023-04-06T08:03:12;6.13;;;3.83;;
76155;SDS011;64906;51.290;7.348;2023-04-06T08:05:37;6.00;;;3.38;;
76155;SDS011;64906;51.290;7.348;2023-04-06T08:08:03;5.73;;;3.30;;
76155;SDS011;64906;51.290;7.348;2023-04-06T08:10:28;5.78;;;3.63;;
76155;SDS011;64906;51.290;7.348;2023-04-06T08:12:53;6.47;;;3.55;;
76155;SDS011;64906;51.290;7.348;2023-04-06T08:15:19;7.82;;;4.00;;
76155;SDS011;64906;51.290;7.348;2023-04-06T08:17:44;8.82;;;5.28;;
76155;SDS011;64906;51.290;7.348;2023-04-06T08:20:10;8.15;;;5.05;;
76155;SDS011;64906;51.290;7.348;2023-04-06T08:22:35;7.15;;;4.95;;
76155;SDS011;64906;51.290;7.348;2023-04-06T08:25:01;8.20;;;5.20;;
76155;SDS011;64906;51.290;7.348;2023-04-06T08:27:26;8.23;;;5.05;;
76155;SDS011;64906;51.290;7.348;2023-04-06T08:29:51;8.15;;;5.10;;
76155;SDS011;64906;51.290;7.348;2023-04-06T08:32:17;7.93;;;4.68;;
76155;SDS011;64906;51.290;7.348;2023-04-06T08:34:42;8.33;;;4.77;;
76155;SDS011;64906;51.290;7.348;2023-04-06T08:37:07;7.57;;;4.90;;
76155;SDS011;64906;51.290;7.348;2023-04-06T08:39:33;7.27;;;4.57;;
76155;SDS011;64906;51.290;7.348;2023-04-06T08:41:58;8.25;;;5.22;;
76155;SDS011;64906;51.290;7.348;2023-04-06T08:44:27;9.32;;;4.20;;
76155;SDS011;64906;51.290;7.348;2023-04-06T08:46:54;10.48;;;4.95;;
76155;SDS011;64906;51.290;7.348;2023-04-06T08:49:20;7.32;;;4.70;;
76155;SDS011;64906;51.290;7.348;2023-04-06T08:51:46;8.88;;;5.88;;
76155;SDS011;64906;51.290;7.348;2023-04-06T08:54:12;8.80;;;5.60;;
76155;SDS011;64906;51.290;7.348;2023-04-06T08:56:38;12.48;;;8.95;;
76155;SDS011;64906;51.290;7.348;2023-04-06T08:59:04;23.67;;;14.23;;
76155;SDS011;64906;51.290;7.348;2023-04-06T09:01:31;24.63;;;15.00;;
76155;SDS011;64906;51.290;7.348;2023-04-06T09:04:01;26.55;;;16.35;;
76155;SDS011;64906;51.290;7.348;2023-04-06T09:06:30;41.80;;;23.55;;
76155;SDS011;64906;51.290;7.348;2023-04-06T09:08:56;54.33;;;34.97;;
76155;SDS011;64906;51.290;7.348;2023-04-06T09:11:21;56.25;;;35.60;;
76155;SDS011;64906;51.290;7.348;2023-04-06T09:13:47;50.78;;;32.58;;
76155;SDS011;64906;51.290;7.348;2023-04-06T09:16:15;53.28;;;35.22;;
76155;SDS011;64906;51.290;7.348;2023-04-06T09:18:41;49.63;;;32.92;;
76155;SDS011;64906;51.290;7.348;2023-04-06T09:21:07;47.70;;;33.17;;
76155;SDS011;64906;51.290;7.348;2023-04-06T09:23:33;51.83;;;33.85;;
76155;SDS011;64906;51.290;7.348;2023-04-06T09:26:05;47.38;;;32.22;;
76155;SDS011;64906;51.290;7.348;2023-04-06T09:29:05;47.08;;;32.88;;
76155;SDS011;64906;51.290;7.348;2023-04-06T09:31:29;48.60;;;31.23;;
76155;SDS011;64906;51.290;7.348;2023-04-06T09:33:58;45.72;;;31.60;;
76155;SDS011;64906;51.290;7.348;2023-04-06T09:36:30;45.72;;;31.65;;
76155;SDS011;64906;51.290;7.348;2023-04-06T09:39:04;47.80;;;32.00;;
76155;SDS011;64906;51.290;7.348;2023-04-06T09:46:27;44.45;;;31.23;;
76155;SDS011;64906;51.290;7.348;2023-04-06T09:48:56;43.88;;;29.08;;
76155;SDS011;64906;51.290;7.348;2023-04-06T09:51:22;44.95;;;30.58;;
76155;SDS011;64906;51.290;7.348;2023-04-06T09:53:52;44.05;;;30.40;;
76155;SDS011;64906;51.290;7.348;2023-04-06T09:56:20;42.90;;;29.83;;
76155;SDS011;64906;51.290;7.348;2023-04-06T09:58:51;44.03;;;29.65;;
76155;SDS011;64906;51.290;7.348;2023-04-06T10:01:20;44.92;;;30.50;;
76155;SDS011;64906;51.290;7.348;2023-04-06T10:06:26;49.20;;;31.85;;
76155;SDS011;64906;51.290;7.348;2023-04-06T10:08:53;54.13;;;31.65;;
76155;SDS011;64906;51.290;7.348;2023-04-06T10:11:21;45.58;;;30.90;;
76155;SDS011;64906;51.290;7.348;2023-04-06T10:13:47;45.08;;;30.55;;
76155;SDS011;64906;51.290;7.348;2023-04-06T10:16:14;43.33;;;29.85;;
76155;SDS011;64906;51.290;7.348;2023-04-06T10:18:40;60.10;;;31.20;;
76155;SDS011;64906;51.290;7.348;2023-04-06T10:21:11;45.95;;;29.60;;
76155;SDS011;64906;51.290;7.348;2023-04-06T10:23:46;43.42;;;29.23;;
76155;SDS011;64906;51.290;7.348;2023-04-06T10:26:14;45.58;;;29.90;;
76155;SDS011;64906;51.290;7.348;2023-04-06T10:28:43;39.97;;;28.67;;
76155;SDS011;64906;51.290;7.348;2023-04-06T10:31:10;43.33;;;28.88;;
76155;SDS011;64906;51.290;7.348;2023-04-06T10:33:35;40.63;;;27.65;;
76155;SDS011;64906;51.290;7.348;2023-04-06T10:36:14;40.95;;;25.98;;
76155;SDS011;64906;51.290;7.348;2023-04-06T10:38:46;43.55;;;28.27;;
76155;SDS011;64906;51.290;7.348;2023-04-06T10:41:11;46.83;;;28.63;;
76155;SDS011;64906;51.290;7.348;2023-04-06T10:43:38;38.88;;;27.85;;
76155;SDS011;64906;51.290;7.348;2023-04-06T10:46:05;43.08;;;28.10;;
76155;SDS011;64906;51.290;7.348;2023-04-06T10:48:38;38.72;;;27.75;;
76155;SDS011;64906;51.290;7.348;2023-04-06T10:51:10;34.83;;;24.80;;
76155;SDS011;64906;51.290;7.348;2023-04-06T10:53:43;43.53;;;30.08;;
76155;SDS011;64906;51.290;7.348;2023-04-06T10:56:13;48.95;;;33.72;;
76155;SDS011;64906;51.290;7.348;2023-04-06T10:58:45;51.25;;;35.15;;
76155;SDS011;64906;51.290;7.348;2023-04-06T11:01:14;55.58;;;36.83;;
76155;SDS011;64906;51.290;7.348;2023-04-06T11:03:44;58.15;;;39.35;;
76155;SDS011;64906;51.290;7.348;2023-04-06T11:06:17;58.92;;;41.25;;
76155;SDS011;64906;51.290;7.348;2023-04-06T11:08:52;62.38;;;42.13;;
76155;SDS011;64906;51.290;7.348;2023-04-06T11:11:19;59.50;;;41.92;;
76155;SDS011;64906;51.290;7.348;2023-04-06T11:13:48;60.00;;;38.08;;
76155;SDS011;64906;51.290;7.348;2023-04-06T11:16:19;61.28;;;42.67;;
76155;SDS011;64906;51.290;7.348;2023-04-06T11:18:52;63.17;;;42.88;;
76155;SDS011;64906;51.290;7.348;2023-04-06T11:24:05;62.88;;;42.13;;
76155;SDS011;64906;51.290;7.348;2023-04-06T11:26:41;64.30;;;41.25;;
76155;SDS011;64906;51.290;7.348;2023-04-06T11:29:07;65.43;;;42.22;;
76155;SDS011;64906;51.290;7.348;2023-04-06T11:31:42;64.25;;;41.10;;
76155;SDS011;64906;51.290;7.348;2023-04-06T11:34:33;63.97;;;42.15;;
76155;SDS011;64906;51.290;7.348;2023-04-06T11:37:02;59.85;;;40.65;;
76155;SDS011;64906;51.290;7.348;2023-04-06T11:39:31;60.03;;;40.00;;
76155;SDS011;64906;51.290;7.348;2023-04-06T11:41:58;66.65;;;42.67;;
76155;SDS011;64906;51.290;7.348;2023-04-06T11:44:35;60.30;;;40.10;;
76155;SDS011;64906;51.290;7.348;2023-04-06T11:47:14;60.10;;;39.65;;
76155;SDS011;64906;51.290;7.348;2023-04-06T11:49:40;60.13;;;41.03;;
76155;SDS011;64906;51.290;7.348;2023-04-06T11:52:19;59.00;;;39.72;;
76155;SDS011;64906;51.290;7.348;2023-04-06T11:54:46;59.90;;;37.95;;
76155;SDS011;64906;51.290;7.348;2023-04-06T11:57:12;56.92;;;39.63;;
76155;SDS011;64906;51.290;7.348;2023-04-06T11:59:38;58.08;;;39.75;;
76155;SDS011;64906;51.290;7.348;2023-04-06T12:02:03;55.38;;;38.30;;
76155;SDS011;64906;51.290;7.348;2023-04-06T12:04:29;60.58;;;38.78;;
76155;SDS011;64906;51.290;7.348;2023-04-06T12:06:55;58.75;;;38.53;;
76155;SDS011;64906;51.290;7.348;2023-04-06T12:09:21;58.22;;;38.05;;
76155;SDS011;64906;51.290;7.348;2023-04-06T12:11:46;58.10;;;38.40;;
76155;SDS011;64906;51.290;7.348;2023-04-06T12:14:12;59.47;;;39.72;;
76155;SDS011;64906;51.290;7.348;2023-04-06T12:16:38;60.10;;;40.42;;
76155;SDS011;64906;51.290;7.348;2023-04-06T12:19:03;61.25;;;38.10;;
76155;SDS011;64906;51.290;7.348;2023-04-06T12:21:33;55.08;;;38.05;;
76155;SDS011;64906;51.290;7.348;2023-04-06T12:24:01;58.65;;;40.03;;
76155;SDS011;64906;51.290;7.348;2023-04-06T12:26:27;58.00;;;38.72;;
76155;SDS011;64906;51.290;7.348;2023-04-06T12:28:53;58.17;;;36.80;;
76155;SDS011;64906;51.290;7.348;2023-04-06T12:31:19;56.80;;;39.00;;
76155;SDS011;64906;51.290;7.348;2023-04-06T12:33:46;52.83;;;35.50;;
76155;SDS011;64906;51.290;7.348;2023-04-06T12:36:13;61.10;;;39.72;;
76155;SDS011;64906;51.290;7.348;2023-04-06T12:38:49;59.38;;;39.97;;
76155;SDS011;64906;51.290;7.348;2023-04-06T12:41:18;67.78;;;39.90;;
76155;SDS011;64906;51.290;7.348;2023-04-06T12:43:43;59.92;;;38.90;;
76155;SDS011;64906;51.290;7.348;2023-04-06T12:46:10;59.30;;;40.40;;
76155;SDS011;64906;51.290;7.348;2023-04-06T12:48:36;56.38;;;35.78;;
76155;SDS011;64906;51.290;7.348;2023-04-06T12:51:02;59.17;;;39.63;;
76155;SDS011;64906;51.290;7.348;2023-04-06T12:53:29;60.22;;;39.88;;
76155;SDS011;64906;51.290;7.348;2023-04-06T12:55:54;57.75;;;39.30;;
76155;SDS011;64906;51.290;7.348;2023-04-06T12:58:21;60.20;;;39.03;;
76155;SDS011;64906;51.290;7.348;2023-04-06T13:00:47;60.30;;;38.72;;
76155;SDS011;64906;51.290;7.348;2023-04-06T13:03:13;58.00;;;38.95;;
76155;SDS011;64906;51.290;7.348;2023-04-06T13:05:49;57.42;;;35.47;;
76155;SDS011;64906;51.290;7.348;2023-04-06T13:08:15;54.67;;;37.17;;
76155;SDS011;64906;51.290;7.348;2023-04-06T13:10:44;56.35;;;39.13;;
76155;SDS011;64906;51.290;7.348;2023-04-06T13:13:16;58.05;;;36.88;;
76155;SDS011;64906;51.290;7.348;2023-04-06T13:15:42;53.42;;;37.70;;
76155;SDS011;64906;51.290;7.348;2023-04-06T13:18:08;52.22;;;36.08;;
76155;SDS011;64906;51.290;7.348;2023-04-06T13:20:34;56.38;;;36.47;;
76155;SDS011;64906;51.290;7.348;2023-04-06T13:23:00;52.47;;;33.75;;
76155;SDS011;64906;51.290;7.348;2023-04-06T13:25:26;50.90;;;34.28;;
76155;SDS011;64906;51.290;7.348;2023-04-06T13:27:51;49.20;;;31.43;;
76155;SDS011;64906;51.290;7.348;2023-04-06T13:30:16;53.47;;;34.20;;
76155;SDS011;64906;51.290;7.348;2023-04-06T13:32:42;49.28;;;32.97;;
76155;SDS011;64906;51.290;7.348;2023-04-06T13:35:08;47.63;;;32.03;;
76155;SDS011;64906;51.290;7.348;2023-04-06T13:37:34;46.50;;;31.65;;
76155;SDS011;64906;51.290;7.348;2023-04-06T13:40:00;46.47;;;29.63;;
76155;SDS011;64906;51.290;7.348;2023-04-06T13:42:27;49.42;;;32.22;;
76155;SDS011;64906;51.290;7.348;2023-04-06T13:44:53;48.15;;;32.05;;
76155;SDS011;64906;51.290;7.348;2023-04-06T13:47:18;47.55;;;32.53;;
76155;SDS011;64906;51.290;7.348;2023-04-06T13:49:44;47.78;;;31.42;;
76155;SDS011;64906;51.290;7.348;2023-04-06T13:52:10;46.15;;;30.73;;
76155;SDS011;64906;51.290;7.348;2023-04-06T13:54:35;49.10;;;31.80;;
76155;SDS011;64906;51.290;7.348;2023-04-06T13:57:01;43.33;;;29.63;;
76155;SDS011;64906;51.290;7.348;2023-04-06T13:59:33;43.13;;;28.60;;
76155;SDS011;64906;51.290;7.348;2023-04-06T14:02:01;45.67;;;30.45;;
76155;SDS011;64906;51.290;7.348;2023-04-06T14:04:27;45.47;;;30.98;;
76155;SDS011;64906;51.290;7.348;2023-04-06T14:06:53;43.85;;;29.02;;
76155;SDS011;64906;51.290;7.348;2023-04-06T14:09:18;43.80;;;29.35;;
76155;SDS011;64906;51.290;7.348;2023-04-06T14:11:44;40.75;;;27.98;;
76155;SDS011;64906;51.290;7.348;2023-04-06T14:14:10;44.47;;;29.10;;
76155;SDS011;64906;51.290;7.348;2023-04-06T14:16:35;39.90;;;27.92;;
76155;SDS011;64906;51.290;7.348;2023-04-06T14:19:00;43.70;;;29.23;;
76155;SDS011;64906;51.290;7.348;2023-04-06T14:21:26;44.13;;;28.48;;
76155;SDS011;64906;51.290;7.348;2023-04-06T14:23:51;40.92;;;28.67;;
76155;SDS011;64906;51.290;7.348;2023-04-06T14:26:17;40.45;;;27.67;;
76155;SDS011;64906;51.290;7.348;2023-04-06T14:28:43;43.22;;;27.75;;
76155;SDS011;64906;51.290;7.348;2023-04-06T14:31:11;40.40;;;27.60;;
76155;SDS011;64906;51.290;7.348;2023-04-06T14:33:38;42.15;;;28.05;;
76155;SDS011;64906;51.290;7.348;2023-04-06T14:36:04;39.05;;;25.48;;